Bowdon Junction, Georgia
Current Conditions -  °F | °C
As of 5:55 PM on Thursday 18 Dec 2014 (Local Time) from KCTJ Reporting Station
Overcast Overcast  
Wind Chill: 46°   Ceiling: 9000
Heat Index: 48°   Visibility: 10mi
Dew Point: 36°   Wind: 5mph
Humidity: 62%   Direction: 320°NW
Pressure: 30.16"   Gusts: NA
Location:  33.66°N, 85.15°W
Report Text: KCTJ 182255Z AUTO 32004KT 10SM SCT048 OVC090 09/02 A3016 RMK AO2
Loading
Personal Weather Stations






























Interactive Weather Map New forecast layout! Learn more

10-Day Weather Forecast

Advertisements
Track Severe Weather on mobile